sensor_id;sensor_type;location;lat;lon;timestamp;P1;durP1;ratioP1;P2;durP2;ratioP2
57329;SDS011;43163;51.032;18.280;2023-03-14T05:26:13;5.30;;;3.10;;
57329;SDS011;43163;51.032;18.280;2023-03-14T05:43:40;8.80;;;2.20;;
57329;SDS011;43163;51.032;18.280;2023-03-14T05:53:29;6.10;;;3.00;;
57329;SDS011;43163;51.032;18.280;2023-03-14T06:03:24;9.10;;;3.20;;
57329;SDS011;43163;51.032;18.280;2023-03-14T06:13:19;0.40;;;0.40;;
57329;SDS011;43163;51.032;18.280;2023-03-14T06:23:23;5.90;;;2.80;;
57329;SDS011;43163;51.032;18.280;2023-03-14T06:33:20;6.10;;;3.50;;
57329;SDS011;43163;51.032;18.280;2023-03-14T06:43:10;8.30;;;4.10;;
57329;SDS011;43163;51.032;18.280;2023-03-14T06:53:12;8.90;;;4.80;;
57329;SDS011;43163;51.032;18.280;2023-03-14T07:10:40;4.90;;;3.30;;
57329;SDS011;43163;51.032;18.280;2023-03-14T07:20:39;5.90;;;3.30;;
57329;SDS011;43163;51.032;18.280;2023-03-14T07:30:37;6.20;;;3.20;;
57329;SDS011;43163;51.032;18.280;2023-03-14T07:40:30;12.30;;;2.80;;
57329;SDS011;43163;51.032;18.280;2023-03-14T07:50:26;6.90;;;2.70;;
57329;SDS011;43163;51.032;18.280;2023-03-14T08:00:20;3.40;;;2.80;;
57329;SDS011;43163;51.032;18.280;2023-03-14T08:10:10;5.50;;;4.10;;
57329;SDS011;43163;51.032;18.280;2023-03-14T08:20:27;7.30;;;3.80;;
57329;SDS011;43163;51.032;18.280;2023-03-14T08:37:45;2.80;;;1.70;;
57329;SDS011;43163;51.032;18.280;2023-03-14T08:47:38;7.60;;;3.80;;
57329;SDS011;43163;51.032;18.280;2023-03-14T08:57:38;6.40;;;3.20;;
57329;SDS011;43163;51.032;18.280;2023-03-14T09:07:37;4.60;;;2.90;;
57329;SDS011;43163;51.032;18.280;2023-03-14T09:17:27;9.70;;;3.90;;
57329;SDS011;43163;51.032;18.280;2023-03-14T09:27:18;6.40;;;4.10;;
57329;SDS011;43163;51.032;18.280;2023-03-14T09:37:15;18.00;;;5.10;;
57329;SDS011;43163;51.032;18.280;2023-03-14T09:47:15;6.50;;;3.70;;
57329;SDS011;43163;51.032;18.280;2023-03-14T09:57:41;10.30;;;4.00;;
57329;SDS011;43163;51.032;18.280;2023-03-14T10:08:16;6.30;;;3.90;;
57329;SDS011;43163;51.032;18.280;2023-03-14T10:18:10;5.00;;;4.40;;
57329;SDS011;43163;51.032;18.280;2023-03-14T10:28:42;5.90;;;4.70;;
57329;SDS011;43163;51.032;18.280;2023-03-14T17:27:28;14.70;;;9.00;;
57329;SDS011;43163;51.032;18.280;2023-03-14T17:37:16;16.60;;;10.10;;
57329;SDS011;43163;51.032;18.280;2023-03-14T17:47:07;11.80;;;8.90;;
57329;SDS011;43163;51.032;18.280;2023-03-14T17:56:59;24.40;;;12.60;;
57329;SDS011;43163;51.032;18.280;2023-03-14T18:06:49;40.00;;;13.30;;
57329;SDS011;43163;51.032;18.280;2023-03-14T18:16:43;56.60;;;6.30;;
57329;SDS011;43163;51.032;18.280;2023-03-14T18:26:41;13.40;;;8.20;;
57329;SDS011;43163;51.032;18.280;2023-03-14T18:36:37;12.90;;;8.90;;
57329;SDS011;43163;51.032;18.280;2023-03-14T18:46:29;14.90;;;7.90;;
57329;SDS011;43163;51.032;18.280;2023-03-14T18:56:27;13.20;;;8.10;;
57329;SDS011;43163;51.032;18.280;2023-03-14T19:13:47;15.90;;;9.00;;
57329;SDS011;43163;51.032;18.280;2023-03-14T19:23:38;24.30;;;9.10;;
57329;SDS011;43163;51.032;18.280;2023-03-14T19:33:31;17.00;;;10.40;;
57329;SDS011;43163;51.032;18.280;2023-03-14T19:43:22;11.80;;;9.00;;
57329;SDS011;43163;51.032;18.280;2023-03-14T19:53:13;12.60;;;8.20;;
57329;SDS011;43163;51.032;18.280;2023-03-14T20:03:07;23.80;;;9.90;;
57329;SDS011;43163;51.032;18.280;2023-03-14T20:12:57;16.80;;;10.40;;
57329;SDS011;43163;51.032;18.280;2023-03-14T20:22:47;9.00;;;7.70;;
57329;SDS011;43163;51.032;18.280;2023-03-14T20:32:44;19.40;;;11.40;;
57329;SDS011;43163;51.032;18.280;2023-03-14T20:42:39;13.80;;;9.00;;
57329;SDS011;43163;51.032;18.280;2023-03-14T20:52:30;11.60;;;6.50;;
57329;SDS011;43163;51.032;18.280;2023-03-14T21:02:20;10.40;;;6.30;;
57329;SDS011;43163;51.032;18.280;2023-03-14T21:12:10;30.70;;;6.70;;
57329;SDS011;43163;51.032;18.280;2023-03-14T21:22:06;0.90;;;0.80;;
57329;SDS011;43163;51.032;18.280;2023-03-14T21:31:57;4.70;;;2.80;;
57329;SDS011;43163;51.032;18.280;2023-03-14T21:41:49;0.80;;;0.80;;
57329;SDS011;43163;51.032;18.280;2023-03-14T21:51:42;2.60;;;0.60;;
57329;SDS011;43163;51.032;18.280;2023-03-14T22:01:54;1.20;;;1.20;;
57329;SDS011;43163;51.032;18.280;2023-03-14T22:11:48;0.90;;;0.60;;
57329;SDS011;43163;51.032;18.280;2023-03-14T22:21:39;2.00;;;0.60;;
57329;SDS011;43163;51.032;18.280;2023-03-14T22:31:30;0.60;;;0.60;;
57329;SDS011;43163;51.032;18.280;2023-03-14T23:27:51;1.00;;;1.00;;
57329;SDS011;43163;51.032;18.280;2023-03-14T23:37:43;6.00;;;2.70;;
57329;SDS011;43163;51.032;18.280;2023-03-14T23:47:33;3.60;;;2.80;;
57329;SDS011;43163;51.032;18.280;2023-03-14T23:57:23;6.90;;;3.10;;
